sensor_id;sensor_type;location;lat;lon;timestamp;P1;durP1;ratioP1;P2;durP2;ratioP2
2956;SDS011;1488;51.548;7.222;2023-11-22T09:59:19;1.70;;;1.60;;
2956;SDS011;1488;51.548;7.222;2023-11-22T10:01:48;2.20;;;1.40;;
2956;SDS011;1488;51.548;7.222;2023-11-22T10:19:52;13.00;;;7.50;;
2956;SDS011;1488;51.548;7.222;2023-11-22T10:22:20;11.37;;;8.30;;
2956;SDS011;1488;51.548;7.222;2023-11-22T10:24:47;13.90;;;8.67;;
2956;SDS011;1488;51.548;7.222;2023-11-22T10:29:51;12.30;;;8.47;;
2956;SDS011;1488;51.548;7.222;2023-11-22T10:35:08;8.17;;;6.17;;
2956;SDS011;1488;51.548;7.222;2023-11-22T10:37:35;9.07;;;5.87;;
2956;SDS011;1488;51.548;7.222;2023-11-22T10:40:02;9.87;;;5.33;;
2956;SDS011;1488;51.548;7.222;2023-11-22T10:42:34;10.80;;;6.17;;
2956;SDS011;1488;51.548;7.222;2023-11-22T10:45:01;9.40;;;6.03;;
2956;SDS011;1488;51.548;7.222;2023-11-22T10:47:32;9.00;;;6.20;;
2956;SDS011;1488;51.548;7.222;2023-11-22T10:50:04;11.20;;;6.80;;
2956;SDS011;1488;51.548;7.222;2023-11-22T10:52:34;10.97;;;7.00;;
2956;SDS011;1488;51.548;7.222;2023-11-22T10:55:02;6.53;;;5.80;;
2956;SDS011;1488;51.548;7.222;2023-11-22T10:57:31;10.13;;;7.20;;
2956;SDS011;1488;51.548;7.222;2023-11-22T11:00:00;9.30;;;6.27;;
2956;SDS011;1488;51.548;7.222;2023-11-22T11:02:33;7.00;;;5.70;;
2956;SDS011;1488;51.548;7.222;2023-11-22T11:05:09;8.47;;;5.37;;
2956;SDS011;1488;51.548;7.222;2023-11-22T11:07:47;8.97;;;5.63;;
2956;SDS011;1488;51.548;7.222;2023-11-22T11:10:17;7.10;;;5.33;;
2956;SDS011;1488;51.548;7.222;2023-11-22T11:12:46;7.03;;;4.77;;
2956;SDS011;1488;51.548;7.222;2023-11-22T11:15:13;9.33;;;6.37;;
2956;SDS011;1488;51.548;7.222;2023-11-22T11:17:42;11.10;;;5.17;;
2956;SDS011;1488;51.548;7.222;2023-11-22T11:20:15;6.73;;;5.53;;
2956;SDS011;1488;51.548;7.222;2023-11-22T11:22:47;12.23;;;5.40;;
2956;SDS011;1488;51.548;7.222;2023-11-22T11:25:14;9.80;;;6.33;;
2956;SDS011;1488;51.548;7.222;2023-11-22T11:27:43;6.17;;;5.00;;
2956;SDS011;1488;51.548;7.222;2023-11-22T11:33:09;6.70;;;5.27;;
2956;SDS011;1488;51.548;7.222;2023-11-22T11:35:39;8.40;;;4.53;;
2956;SDS011;1488;51.548;7.222;2023-11-22T11:38:12;5.60;;;4.90;;
2956;SDS011;1488;51.548;7.222;2023-11-22T11:40:40;6.90;;;4.33;;
2956;SDS011;1488;51.548;7.222;2023-11-22T11:43:08;5.53;;;4.00;;
2956;SDS011;1488;51.548;7.222;2023-11-22T11:45:36;6.67;;;4.13;;
2956;SDS011;1488;51.548;7.222;2023-11-22T11:48:05;5.07;;;4.07;;
2956;SDS011;1488;51.548;7.222;2023-11-22T11:50:32;8.67;;;5.70;;
2956;SDS011;1488;51.548;7.222;2023-11-22T11:52:59;6.30;;;4.90;;
2956;SDS011;1488;51.548;7.222;2023-11-22T11:55:27;3.93;;;3.53;;
2956;SDS011;1488;51.548;7.222;2023-11-22T11:57:54;5.50;;;3.90;;
2956;SDS011;1488;51.548;7.222;2023-11-22T12:00:21;5.00;;;3.10;;
2956;SDS011;1488;51.548;7.222;2023-11-22T12:02:49;5.23;;;3.70;;
2956;SDS011;1488;51.548;7.222;2023-11-22T12:05:18;4.23;;;3.50;;
2956;SDS011;1488;51.548;7.222;2023-11-22T12:07:45;6.30;;;3.60;;
2956;SDS011;1488;51.548;7.222;2023-11-22T12:10:13;4.03;;;3.00;;
2956;SDS011;1488;51.548;7.222;2023-11-22T12:12:43;5.63;;;3.43;;
2956;SDS011;1488;51.548;7.222;2023-11-22T12:15:12;3.33;;;3.03;;
2956;SDS011;1488;51.548;7.222;2023-11-22T12:17:40;4.30;;;3.47;;
2956;SDS011;1488;51.548;7.222;2023-11-22T12:20:10;3.70;;;3.37;;
2956;SDS011;1488;51.548;7.222;2023-11-22T12:22:39;3.73;;;2.90;;
2956;SDS011;1488;51.548;7.222;2023-11-22T12:25:07;5.87;;;3.00;;
2956;SDS011;1488;51.548;7.222;2023-11-22T12:27:38;3.17;;;2.70;;
2956;SDS011;1488;51.548;7.222;2023-11-22T12:30:08;3.63;;;2.50;;
2956;SDS011;1488;51.548;7.222;2023-11-22T12:32:38;5.00;;;3.33;;
2956;SDS011;1488;51.548;7.222;2023-11-22T12:35:06;3.37;;;2.73;;
2956;SDS011;1488;51.548;7.222;2023-11-22T12:37:33;6.70;;;3.00;;
2956;SDS011;1488;51.548;7.222;2023-11-22T12:40:06;3.87;;;2.60;;
2956;SDS011;1488;51.548;7.222;2023-11-22T12:42:45;4.53;;;2.97;;
2956;SDS011;1488;51.548;7.222;2023-11-22T12:45:18;3.10;;;2.80;;
2956;SDS011;1488;51.548;7.222;2023-11-22T12:47:46;5.70;;;3.40;;
2956;SDS011;1488;51.548;7.222;2023-11-22T12:50:29;5.37;;;2.90;;
2956;SDS011;1488;51.548;7.222;2023-11-22T12:52:57;3.50;;;3.20;;
2956;SDS011;1488;51.548;7.222;2023-11-22T12:55:25;4.23;;;3.07;;
2956;SDS011;1488;51.548;7.222;2023-11-22T12:57:56;3.70;;;2.57;;
2956;SDS011;1488;51.548;7.222;2023-11-22T13:00:26;8.30;;;3.00;;
2956;SDS011;1488;51.548;7.222;2023-11-22T13:02:54;3.93;;;2.30;;
2956;SDS011;1488;51.548;7.222;2023-11-22T13:05:22;4.37;;;3.00;;
2956;SDS011;1488;51.548;7.222;2023-11-22T13:07:49;3.57;;;2.53;;
2956;SDS011;1488;51.548;7.222;2023-11-22T13:10:16;3.83;;;3.00;;
2956;SDS011;1488;51.548;7.222;2023-11-22T13:12:43;2.77;;;2.53;;
2956;SDS011;1488;51.548;7.222;2023-11-22T13:15:10;6.20;;;3.87;;
2956;SDS011;1488;51.548;7.222;2023-11-22T13:17:39;2.77;;;2.40;;
2956;SDS011;1488;51.548;7.222;2023-11-22T13:20:06;2.50;;;2.27;;
2956;SDS011;1488;51.548;7.222;2023-11-22T13:22:38;2.47;;;2.27;;
2956;SDS011;1488;51.548;7.222;2023-11-22T13:25:06;5.30;;;3.20;;
2956;SDS011;1488;51.548;7.222;2023-11-22T13:27:35;5.87;;;2.50;;
2956;SDS011;1488;51.548;7.222;2023-11-22T13:30:02;5.07;;;2.40;;
2956;SDS011;1488;51.548;7.222;2023-11-22T13:32:30;3.53;;;2.10;;
2956;SDS011;1488;51.548;7.222;2023-11-22T13:34:58;4.87;;;3.50;;
2956;SDS011;1488;51.548;7.222;2023-11-22T13:37:25;3.47;;;2.40;;
2956;SDS011;1488;51.548;7.222;2023-11-22T13:39:52;4.33;;;2.50;;
2956;SDS011;1488;51.548;7.222;2023-11-22T13:42:19;2.90;;;2.23;;
2956;SDS011;1488;51.548;7.222;2023-11-22T13:44:46;2.87;;;2.03;;
2956;SDS011;1488;51.548;7.222;2023-11-22T13:47:13;5.13;;;2.00;;
2956;SDS011;1488;51.548;7.222;2023-11-22T13:49:40;5.20;;;2.50;;
2956;SDS011;1488;51.548;7.222;2023-11-22T13:52:09;3.13;;;1.73;;
2956;SDS011;1488;51.548;7.222;2023-11-22T13:54:36;4.60;;;2.27;;
2956;SDS011;1488;51.548;7.222;2023-11-22T13:57:04;6.07;;;2.90;;
2956;SDS011;1488;51.548;7.222;2023-11-22T13:59:32;2.00;;;1.80;;
2956;SDS011;1488;51.548;7.222;2023-11-22T14:01:59;6.57;;;2.37;;
2956;SDS011;1488;51.548;7.222;2023-11-22T14:04:26;4.50;;;1.93;;
2956;SDS011;1488;51.548;7.222;2023-11-22T14:06:53;7.17;;;2.50;;
2956;SDS011;1488;51.548;7.222;2023-11-22T14:09:21;3.63;;;2.10;;
2956;SDS011;1488;51.548;7.222;2023-11-22T14:11:48;2.73;;;1.90;;
2956;SDS011;1488;51.548;7.222;2023-11-22T14:14:15;4.03;;;2.20;;
2956;SDS011;1488;51.548;7.222;2023-11-22T14:16:44;3.63;;;1.93;;
2956;SDS011;1488;51.548;7.222;2023-11-22T14:19:13;2.10;;;1.90;;
2956;SDS011;1488;51.548;7.222;2023-11-22T14:21:40;2.10;;;1.90;;
2956;SDS011;1488;51.548;7.222;2023-11-22T14:24:07;4.37;;;1.93;;
2956;SDS011;1488;51.548;7.222;2023-11-22T14:26:35;2.73;;;2.07;;
2956;SDS011;1488;51.548;7.222;2023-11-22T14:29:02;1.90;;;1.50;;
2956;SDS011;1488;51.548;7.222;2023-11-22T14:31:30;2.57;;;1.90;;
2956;SDS011;1488;51.548;7.222;2023-11-22T14:33:57;5.27;;;2.27;;
2956;SDS011;1488;51.548;7.222;2023-11-22T14:36:24;1.73;;;1.60;;
2956;SDS011;1488;51.548;7.222;2023-11-22T14:38:51;2.03;;;1.83;;
2956;SDS011;1488;51.548;7.222;2023-11-22T14:41:21;2.47;;;2.07;;
2956;SDS011;1488;51.548;7.222;2023-11-22T14:43:50;1.97;;;1.53;;
2956;SDS011;1488;51.548;7.222;2023-11-22T14:46:17;1.90;;;1.60;;
2956;SDS011;1488;51.548;7.222;2023-11-22T14:48:44;3.00;;;1.60;;
2956;SDS011;1488;51.548;7.222;2023-11-22T14:51:13;6.63;;;1.70;;
2956;SDS011;1488;51.548;7.222;2023-11-22T14:53:39;1.87;;;1.73;;
2956;SDS011;1488;51.548;7.222;2023-11-22T14:56:09;2.70;;;2.20;;
2956;SDS011;1488;51.548;7.222;2023-11-22T14:58:36;2.80;;;1.93;;
2956;SDS011;1488;51.548;7.222;2023-11-22T15:01:05;2.70;;;1.80;;
2956;SDS011;1488;51.548;7.222;2023-11-22T15:03:33;3.07;;;1.57;;
2956;SDS011;1488;51.548;7.222;2023-11-22T15:06:00;2.90;;;1.70;;
2956;SDS011;1488;51.548;7.222;2023-11-22T15:08:27;1.90;;;1.53;;
2956;SDS011;1488;51.548;7.222;2023-11-22T15:10:54;2.53;;;1.90;;
2956;SDS011;1488;51.548;7.222;2023-11-22T15:13:21;1.70;;;1.40;;
2956;SDS011;1488;51.548;7.222;2023-11-22T15:15:49;3.23;;;1.73;;
2956;SDS011;1488;51.548;7.222;2023-11-22T15:18:17;7.67;;;2.30;;
2956;SDS011;1488;51.548;7.222;2023-11-22T15:20:45;2.30;;;1.90;;
2956;SDS011;1488;51.548;7.222;2023-11-22T15:23:12;3.90;;;2.53;;
2956;SDS011;1488;51.548;7.222;2023-11-22T15:25:54;3.17;;;1.63;;
2956;SDS011;1488;51.548;7.222;2023-11-22T15:28:22;7.40;;;1.93;;
2956;SDS011;1488;51.548;7.222;2023-11-22T15:30:49;4.80;;;1.87;;
2956;SDS011;1488;51.548;7.222;2023-11-22T15:33:22;6.30;;;1.73;;
2956;SDS011;1488;51.548;7.222;2023-11-22T15:35:49;3.13;;;2.20;;
2956;SDS011;1488;51.548;7.222;2023-11-22T15:38:16;3.23;;;1.60;;
2956;SDS011;1488;51.548;7.222;2023-11-22T15:40:43;4.10;;;1.73;;
2956;SDS011;1488;51.548;7.222;2023-11-22T15:43:09;2.40;;;2.20;;
2956;SDS011;1488;51.548;7.222;2023-11-22T15:45:37;7.60;;;1.70;;
2956;SDS011;1488;51.548;7.222;2023-11-22T15:48:06;2.97;;;1.73;;
2956;SDS011;1488;51.548;7.222;2023-11-22T15:50:34;2.00;;;1.80;;
2956;SDS011;1488;51.548;7.222;2023-11-22T15:53:01;3.80;;;1.90;;
2956;SDS011;1488;51.548;7.222;2023-11-22T16:19:18;1.83;;;1.60;;
2956;SDS011;1488;51.548;7.222;2023-11-22T16:21:45;1.80;;;1.47;;
2956;SDS011;1488;51.548;7.222;2023-11-22T16:24:12;4.70;;;1.80;;
2956;SDS011;1488;51.548;7.222;2023-11-22T16:26:40;1.50;;;1.27;;
2956;SDS011;1488;51.548;7.222;2023-11-22T16:29:07;3.30;;;1.80;;
2956;SDS011;1488;51.548;7.222;2023-11-22T16:31:33;2.47;;;1.47;;
2956;SDS011;1488;51.548;7.222;2023-11-22T16:33:59;1.87;;;1.53;;
2956;SDS011;1488;51.548;7.222;2023-11-22T16:36:29;1.83;;;1.20;;
2956;SDS011;1488;51.548;7.222;2023-11-22T16:38:56;4.93;;;1.30;;
2956;SDS011;1488;51.548;7.222;2023-11-22T16:41:23;2.80;;;1.50;;
2956;SDS011;1488;51.548;7.222;2023-11-22T16:43:50;1.70;;;1.60;;
2956;SDS011;1488;51.548;7.222;2023-11-22T16:46:17;2.17;;;1.60;;
2956;SDS011;1488;51.548;7.222;2023-11-22T16:48:44;2.40;;;2.10;;
2956;SDS011;1488;51.548;7.222;2023-11-22T16:51:11;2.40;;;1.43;;
2956;SDS011;1488;51.548;7.222;2023-11-22T16:53:39;2.50;;;2.10;;
2956;SDS011;1488;51.548;7.222;2023-11-22T16:56:06;4.03;;;1.50;;
2956;SDS011;1488;51.548;7.222;2023-11-22T16:58:33;2.37;;;1.70;;
2956;SDS011;1488;51.548;7.222;2023-11-22T17:03:28;2.03;;;1.60;;
2956;SDS011;1488;51.548;7.222;2023-11-22T17:05:55;1.33;;;1.20;;
2956;SDS011;1488;51.548;7.222;2023-11-22T17:08:22;1.63;;;1.53;;
2956;SDS011;1488;51.548;7.222;2023-11-22T17:10:50;2.13;;;1.10;;
2956;SDS011;1488;51.548;7.222;2023-11-22T17:13:17;1.33;;;1.23;;
2956;SDS011;1488;51.548;7.222;2023-11-22T17:15:44;1.77;;;1.50;;
2956;SDS011;1488;51.548;7.222;2023-11-22T17:18:11;1.57;;;1.17;;
2956;SDS011;1488;51.548;7.222;2023-11-22T17:20:37;1.57;;;1.47;;
2956;SDS011;1488;51.548;7.222;2023-11-22T17:23:04;1.60;;;1.50;;
2956;SDS011;1488;51.548;7.222;2023-11-22T17:25:31;1.83;;;1.60;;
2956;SDS011;1488;51.548;7.222;2023-11-22T17:27:59;2.30;;;1.63;;
2956;SDS011;1488;51.548;7.222;2023-11-22T17:30:26;1.60;;;1.50;;
2956;SDS011;1488;51.548;7.222;2023-11-22T17:32:53;2.20;;;1.50;;
2956;SDS011;1488;51.548;7.222;2023-11-22T17:35:20;1.90;;;1.47;;
2956;SDS011;1488;51.548;7.222;2023-11-22T17:37:48;1.50;;;1.40;;
2956;SDS011;1488;51.548;7.222;2023-11-22T17:40:17;2.07;;;1.20;;
2956;SDS011;1488;51.548;7.222;2023-11-22T17:42:44;1.33;;;1.23;;
2956;SDS011;1488;51.548;7.222;2023-11-22T17:45:13;1.60;;;1.20;;
2956;SDS011;1488;51.548;7.222;2023-11-22T17:47:39;2.80;;;1.60;;
2956;SDS011;1488;51.548;7.222;2023-11-22T17:50:06;1.50;;;1.30;;
2956;SDS011;1488;51.548;7.222;2023-11-22T17:52:34;2.10;;;1.43;;
2956;SDS011;1488;51.548;7.222;2023-11-22T17:55:00;2.37;;;1.57;;
2956;SDS011;1488;51.548;7.222;2023-11-22T17:57:28;1.20;;;1.03;;
2956;SDS011;1488;51.548;7.222;2023-11-22T17:59:55;1.40;;;1.20;;
2956;SDS011;1488;51.548;7.222;2023-11-22T18:02:23;1.60;;;1.40;;
2956;SDS011;1488;51.548;7.222;2023-11-22T18:04:50;2.30;;;1.40;;
2956;SDS011;1488;51.548;7.222;2023-11-22T18:07:17;2.50;;;1.97;;
2956;SDS011;1488;51.548;7.222;2023-11-22T18:09:44;1.40;;;0.93;;
2956;SDS011;1488;51.548;7.222;2023-11-22T18:12:10;1.43;;;1.33;;
2956;SDS011;1488;51.548;7.222;2023-11-22T18:14:37;1.87;;;1.40;;
2956;SDS011;1488;51.548;7.222;2023-11-22T18:17:04;2.03;;;1.47;;
2956;SDS011;1488;51.548;7.222;2023-11-22T18:19:32;1.50;;;1.30;;
2956;SDS011;1488;51.548;7.222;2023-11-22T18:21:59;1.40;;;1.20;;
2956;SDS011;1488;51.548;7.222;2023-11-22T18:24:26;1.33;;;1.23;;
2956;SDS011;1488;51.548;7.222;2023-11-22T18:26:54;1.30;;;1.10;;
2956;SDS011;1488;51.548;7.222;2023-11-22T18:29:21;1.57;;;1.47;;
2956;SDS011;1488;51.548;7.222;2023-11-22T18:31:49;1.63;;;1.33;;
2956;SDS011;1488;51.548;7.222;2023-11-22T18:34:16;2.00;;;1.50;;
2956;SDS011;1488;51.548;7.222;2023-11-22T18:36:44;1.70;;;1.50;;
2956;SDS011;1488;51.548;7.222;2023-11-22T18:39:11;1.30;;;1.20;;
2956;SDS011;1488;51.548;7.222;2023-11-22T18:41:38;3.23;;;1.47;;
2956;SDS011;1488;51.548;7.222;2023-11-22T18:44:05;1.50;;;1.40;;
2956;SDS011;1488;51.548;7.222;2023-11-22T18:46:33;3.50;;;1.60;;
2956;SDS011;1488;51.548;7.222;2023-11-22T18:49:01;2.30;;;1.70;;
2956;SDS011;1488;51.548;7.222;2023-11-22T18:51:28;4.80;;;1.50;;
2956;SDS011;1488;51.548;7.222;2023-11-22T18:53:56;1.60;;;1.20;;
2956;SDS011;1488;51.548;7.222;2023-11-22T18:56:23;1.43;;;1.33;;
2956;SDS011;1488;51.548;7.222;2023-11-22T18:58:49;3.00;;;1.80;;
2956;SDS011;1488;51.548;7.222;2023-11-22T19:01:17;2.53;;;1.70;;
2956;SDS011;1488;51.548;7.222;2023-11-22T19:03:45;2.50;;;1.40;;
2956;SDS011;1488;51.548;7.222;2023-11-22T19:06:12;2.77;;;1.47;;
2956;SDS011;1488;51.548;7.222;2023-11-22T19:08:39;2.00;;;1.70;;
2956;SDS011;1488;51.548;7.222;2023-11-22T19:11:09;3.23;;;1.50;;
2956;SDS011;1488;51.548;7.222;2023-11-22T19:13:36;3.73;;;1.50;;
2956;SDS011;1488;51.548;7.222;2023-11-22T19:16:03;2.43;;;1.50;;
2956;SDS011;1488;51.548;7.222;2023-11-22T19:18:30;1.60;;;1.40;;
2956;SDS011;1488;51.548;7.222;2023-11-22T19:20:57;1.50;;;1.40;;
2956;SDS011;1488;51.548;7.222;2023-11-22T19:23:28;1.70;;;1.60;;
2956;SDS011;1488;51.548;7.222;2023-11-22T19:25:55;1.60;;;1.50;;
2956;SDS011;1488;51.548;7.222;2023-11-22T19:28:25;2.00;;;1.80;;
2956;SDS011;1488;51.548;7.222;2023-11-22T19:30:53;1.97;;;1.70;;
2956;SDS011;1488;51.548;7.222;2023-11-22T19:33:20;1.90;;;1.80;;
2956;SDS011;1488;51.548;7.222;2023-11-22T19:35:46;1.77;;;1.67;;
2956;SDS011;1488;51.548;7.222;2023-11-22T19:38:14;3.93;;;1.83;;
2956;SDS011;1488;51.548;7.222;2023-11-22T19:40:41;5.53;;;1.87;;
2956;SDS011;1488;51.548;7.222;2023-11-22T19:43:09;2.23;;;2.03;;
2956;SDS011;1488;51.548;7.222;2023-11-22T19:45:37;2.10;;;1.90;;
2956;SDS011;1488;51.548;7.222;2023-11-22T19:48:06;3.37;;;1.73;;
2956;SDS011;1488;51.548;7.222;2023-11-22T19:50:32;2.13;;;1.70;;
2956;SDS011;1488;51.548;7.222;2023-11-22T19:52:59;2.43;;;1.87;;
2956;SDS011;1488;51.548;7.222;2023-11-22T19:55:27;3.30;;;2.00;;
2956;SDS011;1488;51.548;7.222;2023-11-22T19:57:54;2.97;;;2.07;;
2956;SDS011;1488;51.548;7.222;2023-11-22T20:00:24;1.70;;;1.60;;
2956;SDS011;1488;51.548;7.222;2023-11-22T20:02:52;3.03;;;2.57;;
2956;SDS011;1488;51.548;7.222;2023-11-22T20:05:25;7.20;;;2.30;;
2956;SDS011;1488;51.548;7.222;2023-11-22T20:07:52;2.90;;;2.23;;
2956;SDS011;1488;51.548;7.222;2023-11-22T20:10:19;2.00;;;1.80;;
2956;SDS011;1488;51.548;7.222;2023-11-22T20:12:49;2.93;;;1.73;;
2956;SDS011;1488;51.548;7.222;2023-11-22T20:15:16;2.07;;;1.90;;
2956;SDS011;1488;51.548;7.222;2023-11-22T20:17:42;2.03;;;1.93;;
2956;SDS011;1488;51.548;7.222;2023-11-22T20:20:14;4.10;;;2.03;;
2956;SDS011;1488;51.548;7.222;2023-11-22T20:22:41;3.70;;;1.87;;
2956;SDS011;1488;51.548;7.222;2023-11-22T20:25:08;1.97;;;1.87;;
2956;SDS011;1488;51.548;7.222;2023-11-22T20:27:35;2.43;;;1.63;;
2956;SDS011;1488;51.548;7.222;2023-11-22T20:30:02;2.07;;;1.97;;
2956;SDS011;1488;51.548;7.222;2023-11-22T20:32:29;2.63;;;1.73;;
2956;SDS011;1488;51.548;7.222;2023-11-22T20:34:56;1.97;;;1.70;;
2956;SDS011;1488;51.548;7.222;2023-11-22T20:37:24;2.33;;;1.70;;
2956;SDS011;1488;51.548;7.222;2023-11-22T20:39:51;2.37;;;2.03;;
2956;SDS011;1488;51.548;7.222;2023-11-22T20:42:18;2.30;;;2.10;;
2956;SDS011;1488;51.548;7.222;2023-11-22T20:44:44;6.30;;;2.33;;
2956;SDS011;1488;51.548;7.222;2023-11-22T20:47:12;2.33;;;2.13;;
2956;SDS011;1488;51.548;7.222;2023-11-22T20:49:39;3.13;;;2.30;;
2956;SDS011;1488;51.548;7.222;2023-11-22T20:52:06;2.70;;;2.03;;
2956;SDS011;1488;51.548;7.222;2023-11-22T20:54:34;2.70;;;2.50;;
2956;SDS011;1488;51.548;7.222;2023-11-22T20:57:02;2.67;;;2.47;;
2956;SDS011;1488;51.548;7.222;2023-11-22T20:59:29;2.10;;;1.90;;
2956;SDS011;1488;51.548;7.222;2023-11-22T21:01:56;2.60;;;2.40;;
2956;SDS011;1488;51.548;7.222;2023-11-22T21:04:23;3.70;;;2.20;;
2956;SDS011;1488;51.548;7.222;2023-11-22T21:06:58;2.53;;;2.07;;
2956;SDS011;1488;51.548;7.222;2023-11-22T21:12:02;2.60;;;1.93;;
2956;SDS011;1488;51.548;7.222;2023-11-22T21:14:30;2.67;;;2.03;;
2956;SDS011;1488;51.548;7.222;2023-11-22T21:16:58;5.27;;;2.53;;
2956;SDS011;1488;51.548;7.222;2023-11-22T21:19:25;2.03;;;1.93;;
2956;SDS011;1488;51.548;7.222;2023-11-22T21:21:51;2.40;;;2.10;;
2956;SDS011;1488;51.548;7.222;2023-11-22T21:24:18;2.80;;;2.20;;
2956;SDS011;1488;51.548;7.222;2023-11-22T21:26:45;2.43;;;2.23;;
2956;SDS011;1488;51.548;7.222;2023-11-22T21:29:13;2.30;;;1.80;;
2956;SDS011;1488;51.548;7.222;2023-11-22T21:31:40;2.27;;;1.83;;
2956;SDS011;1488;51.548;7.222;2023-11-22T21:34:07;3.00;;;2.20;;
2956;SDS011;1488;51.548;7.222;2023-11-22T21:36:34;2.53;;;2.07;;
2956;SDS011;1488;51.548;7.222;2023-11-22T21:39:03;2.33;;;2.17;;
2956;SDS011;1488;51.548;7.222;2023-11-22T21:41:41;2.37;;;2.20;;
2956;SDS011;1488;51.548;7.222;2023-11-22T21:44:09;2.20;;;2.00;;
2956;SDS011;1488;51.548;7.222;2023-11-22T21:46:37;2.20;;;2.00;;
2956;SDS011;1488;51.548;7.222;2023-11-22T21:49:04;2.70;;;1.90;;
2956;SDS011;1488;51.548;7.222;2023-11-22T21:51:32;3.10;;;2.80;;
2956;SDS011;1488;51.548;7.222;2023-11-22T21:54:01;2.50;;;2.30;;
2956;SDS011;1488;51.548;7.222;2023-11-22T21:56:28;4.33;;;2.40;;
2956;SDS011;1488;51.548;7.222;2023-11-22T21:58:54;3.27;;;2.53;;
2956;SDS011;1488;51.548;7.222;2023-11-22T22:01:22;1.70;;;1.60;;
2956;SDS011;1488;51.548;7.222;2023-11-22T22:03:50;2.10;;;1.90;;
2956;SDS011;1488;51.548;7.222;2023-11-22T22:06:18;2.20;;;2.00;;
2956;SDS011;1488;51.548;7.222;2023-11-22T22:08:45;2.73;;;1.80;;
2956;SDS011;1488;51.548;7.222;2023-11-22T22:11:12;2.23;;;2.10;;
2956;SDS011;1488;51.548;7.222;2023-11-22T22:13:39;2.33;;;2.13;;
2956;SDS011;1488;51.548;7.222;2023-11-22T22:16:07;2.93;;;2.13;;
2956;SDS011;1488;51.548;7.222;2023-11-22T22:18:34;2.83;;;2.20;;
2956;SDS011;1488;51.548;7.222;2023-11-22T22:21:03;2.30;;;2.10;;
2956;SDS011;1488;51.548;7.222;2023-11-22T22:23:30;2.63;;;2.03;;
2956;SDS011;1488;51.548;7.222;2023-11-22T22:25:59;2.17;;;2.00;;
2956;SDS011;1488;51.548;7.222;2023-11-22T22:28:27;2.90;;;1.90;;
2956;SDS011;1488;51.548;7.222;2023-11-22T22:30:54;2.33;;;2.10;;
2956;SDS011;1488;51.548;7.222;2023-11-22T22:33:22;4.13;;;2.73;;
2956;SDS011;1488;51.548;7.222;2023-11-22T22:35:49;2.10;;;1.90;;
2956;SDS011;1488;51.548;7.222;2023-11-22T22:38:17;2.10;;;2.00;;
2956;SDS011;1488;51.548;7.222;2023-11-22T22:40:44;2.30;;;2.10;;
2956;SDS011;1488;51.548;7.222;2023-11-22T22:43:11;1.97;;;1.80;;
2956;SDS011;1488;51.548;7.222;2023-11-22T22:45:38;2.43;;;2.23;;
2956;SDS011;1488;51.548;7.222;2023-11-22T22:48:11;2.60;;;1.87;;
2956;SDS011;1488;51.548;7.222;2023-11-22T22:50:38;2.37;;;2.17;;
2956;SDS011;1488;51.548;7.222;2023-11-22T22:53:04;3.67;;;2.10;;
2956;SDS011;1488;51.548;7.222;2023-11-22T22:55:33;1.97;;;1.77;;
2956;SDS011;1488;51.548;7.222;2023-11-22T22:58:01;2.40;;;2.20;;
2956;SDS011;1488;51.548;7.222;2023-11-22T23:00:28;4.60;;;2.00;;
2956;SDS011;1488;51.548;7.222;2023-11-22T23:03:03;2.27;;;2.07;;
2956;SDS011;1488;51.548;7.222;2023-11-22T23:05:30;2.37;;;2.23;;
2956;SDS011;1488;51.548;7.222;2023-11-22T23:07:58;2.13;;;1.93;;
2956;SDS011;1488;51.548;7.222;2023-11-22T23:10:25;2.50;;;2.30;;
2956;SDS011;1488;51.548;7.222;2023-11-22T23:12:53;2.07;;;1.97;;
2956;SDS011;1488;51.548;7.222;2023-11-22T23:15:20;2.10;;;2.00;;
2956;SDS011;1488;51.548;7.222;2023-11-22T23:17:48;2.07;;;1.97;;
2956;SDS011;1488;51.548;7.222;2023-11-22T23:20:15;2.53;;;2.30;;
2956;SDS011;1488;51.548;7.222;2023-11-22T23:22:42;1.90;;;1.80;;
2956;SDS011;1488;51.548;7.222;2023-11-22T23:25:09;2.00;;;1.70;;
2956;SDS011;1488;51.548;7.222;2023-11-22T23:27:37;2.27;;;2.07;;
2956;SDS011;1488;51.548;7.222;2023-11-22T23:30:06;2.30;;;2.10;;
2956;SDS011;1488;51.548;7.222;2023-11-22T23:32:35;2.43;;;2.00;;
2956;SDS011;1488;51.548;7.222;2023-11-22T23:35:03;2.50;;;2.30;;
2956;SDS011;1488;51.548;7.222;2023-11-22T23:37:30;2.53;;;2.33;;
2956;SDS011;1488;51.548;7.222;2023-11-22T23:39:57;2.57;;;2.37;;
2956;SDS011;1488;51.548;7.222;2023-11-22T23:42:30;2.50;;;2.30;;
2956;SDS011;1488;51.548;7.222;2023-11-22T23:44:58;2.47;;;2.27;;
2956;SDS011;1488;51.548;7.222;2023-11-22T23:47:26;2.03;;;1.90;;
2956;SDS011;1488;51.548;7.222;2023-11-22T23:49:53;2.17;;;2.07;;
2956;SDS011;1488;51.548;7.222;2023-11-22T23:52:20;2.10;;;1.80;;
2956;SDS011;1488;51.548;7.222;2023-11-22T23:54:47;2.17;;;1.97;;
2956;SDS011;1488;51.548;7.222;2023-11-22T23:57:14;1.93;;;1.83;;
2956;SDS011;1488;51.548;7.222;2023-11-22T23:59:41;2.30;;;2.10;;
